createdAt,value
2023-03-17T00:00:49.319Z,79.10
2023-03-17T00:01:49.320Z,79.19
2023-03-17T00:02:49.348Z,79.25
2023-03-17T00:03:49.456Z,79.31
2023-03-17T00:04:49.300Z,79.29
2023-03-17T00:05:49.273Z,79.27
2023-03-17T00:06:49.253Z,79.33
2023-03-17T00:07:49.312Z,79.45
2023-03-17T00:08:49.243Z,79.50
2023-03-17T00:09:49.233Z,79.61
2023-03-17T00:10:49.311Z,79.67
2023-03-17T00:11:49.278Z,79.73
2023-03-17T00:12:49.195Z,79.87
2023-03-17T00:13:49.297Z,79.76
2023-03-17T00:14:49.199Z,79.74
2023-03-17T00:15:49.203Z,79.70
2023-03-17T00:16:49.334Z,79.71
2023-03-17T00:17:49.150Z,79.73
2023-03-17T00:18:49.166Z,79.68
2023-03-17T00:19:49.152Z,79.69
2023-03-17T00:20:49.172Z,79.64
2023-03-17T00:21:49.116Z,79.69
2023-03-17T00:22:49.107Z,79.73
2023-03-17T00:23:49.147Z,79.68
2023-03-17T00:24:49.079Z,79.60
2023-03-17T00:25:49.099Z,79.53
2023-03-17T00:26:49.101Z,79.45
2023-03-17T00:27:49.084Z,79.50
2023-03-17T00:28:49.054Z,79.54
2023-03-17T00:29:49.191Z,79.53
2023-03-17T00:30:49.046Z,79.40
2023-03-17T00:31:49.015Z,79.38
2023-03-17T00:32:49.083Z,79.42
2023-03-17T00:33:49.003Z,79.38
2023-03-17T00:34:49.013Z,79.44
2023-03-17T00:35:49.128Z,79.55
2023-03-17T00:36:48.982Z,79.55
2023-03-17T00:37:48.974Z,79.54
2023-03-17T00:38:48.948Z,79.54
2023-03-17T00:39:48.949Z,79.52
2023-03-17T00:40:49.958Z,79.53
2023-03-17T00:41:50.943Z,79.54
2023-03-17T00:42:48.908Z,79.53
2023-03-17T00:43:48.899Z,79.57
2023-03-17T00:44:48.892Z,79.55
2023-03-17T00:45:48.884Z,79.60
2023-03-17T00:46:48.996Z,79.59
2023-03-17T00:47:48.879Z,79.52
2023-03-17T00:48:48.899Z,79.53
2023-03-17T00:49:48.853Z,79.41
2023-03-17T00:50:48.828Z,79.32
2023-03-17T00:51:49.004Z,79.20
2023-03-17T00:52:48.808Z,79.06
2023-03-17T00:53:48.809Z,78.83
2023-03-17T00:54:48.827Z,78.69
2023-03-17T00:55:48.790Z,78.48
2023-03-17T00:56:48.775Z,78.32
2023-03-17T00:57:48.907Z,78.21
2023-03-17T00:58:48.815Z,78.15
2023-03-17T00:59:48.745Z,78.15
2023-03-17T01:00:48.819Z,78.07
2023-03-17T01:01:48.752Z,78.00
2023-03-17T01:02:48.708Z,78.02
2023-03-17T01:03:48.712Z,78.11
2023-03-17T01:04:59.603Z,78.19
2023-03-17T01:05:48.706Z,78.10
2023-03-17T01:06:48.678Z,77.97
2023-03-17T01:07:48.663Z,77.92
2023-03-17T01:08:48.793Z,77.93
2023-03-17T01:09:48.648Z,77.97
2023-03-17T01:10:48.656Z,78.06
2023-03-17T01:11:48.770Z,78.11
2023-03-17T01:12:48.620Z,78.12
2023-03-17T01:13:48.622Z,78.16
2023-03-17T01:14:48.598Z,78.17
2023-03-17T01:15:48.585Z,78.19
2023-03-17T01:16:48.744Z,78.18
2023-03-17T01:17:48.564Z,78.19
2023-03-17T01:18:48.602Z,78.26
2023-03-17T01:19:48.571Z,78.25
2023-03-17T01:20:48.542Z,78.30
2023-03-17T01:21:48.538Z,78.26
2023-03-17T01:22:48.554Z,78.24
2023-03-17T01:23:48.538Z,78.25
2023-03-17T01:24:48.511Z,78.17
2023-03-17T01:25:48.639Z,78.22
2023-03-17T01:26:48.497Z,78.38
2023-03-17T01:27:48.499Z,78.52
2023-03-17T01:28:48.494Z,78.51
2023-03-17T01:29:48.459Z,78.47
2023-03-17T01:30:48.487Z,78.69
2023-03-17T01:31:48.552Z,78.88
2023-03-17T01:32:48.613Z,79.01
2023-03-17T01:33:48.414Z,79.02
2023-03-17T01:34:48.413Z,79.07
2023-03-17T01:35:48.440Z,79.12
2023-03-17T01:36:48.572Z,79.26
2023-03-17T01:37:48.384Z,79.31
2023-03-17T01:38:48.366Z,79.27
2023-03-17T01:39:48.434Z,79.16
2023-03-17T01:40:48.360Z,79.20
2023-03-17T01:41:48.339Z,79.32
2023-03-17T01:42:48.392Z,79.37
2023-03-17T01:43:48.338Z,79.35
2023-03-17T01:44:48.314Z,79.45
2023-03-17T01:45:48.483Z,79.55
2023-03-17T01:46:48.295Z,79.76
2023-03-17T01:47:48.286Z,80.03
2023-03-17T01:48:48.289Z,80.28
2023-03-17T01:49:48.288Z,80.36
2023-03-17T01:50:48.257Z,80.58
2023-03-17T01:51:48.249Z,80.60
2023-03-17T01:52:48.256Z,80.75
2023-03-17T01:53:48.256Z,80.87
2023-03-17T01:54:48.247Z,80.88
2023-03-17T01:55:48.201Z,81.06
2023-03-17T01:56:48.270Z,81.17
2023-03-17T01:57:48.195Z,81.25
2023-03-17T01:58:48.190Z,81.34
2023-03-17T01:59:48.243Z,81.31
2023-03-17T02:00:48.177Z,81.27
2023-03-17T02:01:48.143Z,81.25
2023-03-17T02:02:48.152Z,81.36
2023-03-17T02:03:48.278Z,81.44
2023-03-17T02:04:48.146Z,81.44
2023-03-17T02:05:48.125Z,81.46
2023-03-17T02:06:57.434Z,81.42
2023-03-17T02:07:48.096Z,81.43
2023-03-17T02:08:48.074Z,81.45
2023-03-17T02:09:48.100Z,81.44
2023-03-17T02:10:48.078Z,81.50
2023-03-17T02:11:48.095Z,81.53
2023-03-17T02:12:48.054Z,81.54
2023-03-17T02:13:48.032Z,81.55
2023-03-17T02:14:48.089Z,81.51
2023-03-17T02:15:48.055Z,81.57
2023-03-17T02:16:48.039Z,81.58
2023-03-17T02:17:48.130Z,81.49
2023-03-17T02:18:47.989Z,81.55
2023-03-17T02:19:47.978Z,81.58
2023-03-17T02:20:47.984Z,81.63
2023-03-17T02:21:48.096Z,81.63
2023-03-17T02:22:48.065Z,81.73
2023-03-17T02:23:47.995Z,81.82
2023-03-17T02:24:47.983Z,81.97
2023-03-17T02:25:47.936Z,82.08
2023-03-17T02:26:47.930Z,82.19
2023-03-17T02:27:47.901Z,82.22
2023-03-17T02:28:47.953Z,82.24
2023-03-17T02:29:47.984Z,82.26
2023-03-17T02:30:47.967Z,82.23
2023-03-17T02:31:47.868Z,82.22
2023-03-17T02:32:47.988Z,82.23
2023-03-17T02:33:47.850Z,82.23
2023-03-17T02:34:47.865Z,82.24
2023-03-17T02:35:48.051Z,82.26
2023-03-17T02:36:47.860Z,82.28
2023-03-17T02:37:47.815Z,82.27
2023-03-17T02:38:47.859Z,82.28
2023-03-17T02:39:47.812Z,82.25
2023-03-17T02:40:47.774Z,82.23
2023-03-17T02:41:47.832Z,82.20
2023-03-17T02:42:47.752Z,82.18
2023-03-17T02:43:47.742Z,82.14
2023-03-17T02:44:47.758Z,82.15
2023-03-17T02:45:47.760Z,82.25
2023-03-17T02:46:47.714Z,82.33
2023-03-17T02:47:47.717Z,82.39
2023-03-17T02:48:47.700Z,82.48
2023-03-17T02:49:47.695Z,82.54
2023-03-17T02:50:47.716Z,82.56
2023-03-17T02:51:47.676Z,82.59
2023-03-17T02:52:47.792Z,82.60
2023-03-17T02:53:47.647Z,82.66
2023-03-17T02:54:47.670Z,82.69
2023-03-17T02:55:47.646Z,82.75
2023-03-17T02:56:47.617Z,82.83
2023-03-17T02:57:47.758Z,82.87
2023-03-17T02:58:47.619Z,82.88
2023-03-17T02:59:47.606Z,82.89
2023-03-17T03:00:47.602Z,83.00
2023-03-17T03:01:47.666Z,83.11
2023-03-17T03:02:47.823Z,83.15
2023-03-17T03:03:47.570Z,83.16
2023-03-17T03:04:47.546Z,83.16
2023-03-17T03:05:47.567Z,83.19
2023-03-17T03:06:47.716Z,83.21
2023-03-17T03:07:47.548Z,83.23
2023-03-17T03:08:47.592Z,83.30
2023-03-17T03:09:47.595Z,83.30
2023-03-17T03:10:47.485Z,83.28
2023-03-17T03:11:47.494Z,83.28
2023-03-17T03:12:47.479Z,83.26
2023-03-17T03:13:47.534Z,83.17
2023-03-17T03:14:47.446Z,83.08
2023-03-17T03:15:47.500Z,83.07
2023-03-17T03:16:47.479Z,83.04
2023-03-17T03:17:47.448Z,83.02
2023-03-17T03:18:47.447Z,83.06
2023-03-17T03:19:47.591Z,83.16
2023-03-17T03:20:47.415Z,83.23
2023-03-17T03:21:47.385Z,83.29
2023-03-17T03:22:47.431Z,83.26
2023-03-17T03:23:47.362Z,83.22
2023-03-17T03:24:47.484Z,83.25
2023-03-17T03:25:47.346Z,83.27
2023-03-17T03:26:47.372Z,83.34
2023-03-17T03:27:47.550Z,83.39
2023-03-17T03:28:47.336Z,83.42
2023-03-17T03:29:47.428Z,83.48
2023-03-17T03:30:47.295Z,83.50
2023-03-17T03:31:47.393Z,83.49
2023-03-17T03:32:47.467Z,83.49
2023-03-17T03:33:47.415Z,83.49
2023-03-17T03:34:47.261Z,83.47
2023-03-17T03:35:47.397Z,83.43
2023-03-17T03:36:47.264Z,83.38
2023-03-17T03:37:47.278Z,83.37
2023-03-17T03:38:47.267Z,83.34
2023-03-17T03:39:47.309Z,83.26
2023-03-17T03:40:47.202Z,83.25
2023-03-17T03:41:47.220Z,83.28
2023-03-17T03:42:47.265Z,83.34
2023-03-17T03:43:47.161Z,83.38
2023-03-17T03:44:47.167Z,83.47
2023-03-17T03:45:47.157Z,83.50
2023-03-17T03:46:47.202Z,83.45
2023-03-17T03:47:47.142Z,83.40
2023-03-17T03:48:47.140Z,83.43
2023-03-17T03:49:47.108Z,83.39
2023-03-17T03:50:47.113Z,83.40
2023-03-17T03:51:47.161Z,83.51
2023-03-17T03:52:47.075Z,83.58
2023-03-17T03:53:47.087Z,83.65
2023-03-17T03:54:47.087Z,83.74
2023-03-17T03:55:47.067Z,83.82
2023-03-17T03:56:47.040Z,83.83
2023-03-17T03:57:47.037Z,83.78
2023-03-17T03:58:47.081Z,83.72
2023-03-17T03:59:47.005Z,83.68
2023-03-17T04:00:47.032Z,83.64
2023-03-17T04:01:47.021Z,83.61
2023-03-17T04:02:47.068Z,83.52
2023-03-17T04:03:47.084Z,83.41
2023-03-17T04:04:47.089Z,83.39
2023-03-17T04:05:46.965Z,83.41
2023-03-17T04:06:46.962Z,83.50
2023-03-17T04:07:47.098Z,83.55
2023-03-17T04:08:46.931Z,83.58
2023-03-17T04:09:46.921Z,83.63
2023-03-17T04:10:46.914Z,83.64
2023-03-17T04:11:46.952Z,83.66
2023-03-17T04:12:46.937Z,83.67
2023-03-17T04:13:46.873Z,83.65
2023-03-17T04:14:46.952Z,83.69
2023-03-17T04:15:46.872Z,83.65
2023-03-17T04:16:46.850Z,83.60
2023-03-17T04:17:46.888Z,83.56
2023-03-17T04:18:46.865Z,83.52
2023-03-17T04:19:46.814Z,83.44
2023-03-17T04:20:46.807Z,83.33
2023-03-17T04:21:46.821Z,83.23
2023-03-17T04:22:46.950Z,83.06
2023-03-17T04:23:46.783Z,82.88
2023-03-17T04:24:46.838Z,82.67
2023-03-17T04:25:46.765Z,82.46
2023-03-17T04:26:46.872Z,82.38
2023-03-17T04:27:46.754Z,82.61
2023-03-17T04:28:46.735Z,82.75
2023-03-17T04:29:46.776Z,82.88
2023-03-17T04:30:46.717Z,82.96
2023-03-17T04:31:46.781Z,83.06
2023-03-17T04:32:46.769Z,83.16
2023-03-17T04:33:46.720Z,83.26
2023-03-17T04:34:46.696Z,83.31
2023-03-17T04:35:46.739Z,83.35
2023-03-17T04:36:46.843Z,83.35
2023-03-17T04:37:45.731Z,83.39
2023-03-17T04:38:46.656Z,83.47
2023-03-17T04:39:46.748Z,83.55
2023-03-17T04:40:46.613Z,83.60
2023-03-17T04:41:46.625Z,83.63
2023-03-17T04:42:46.633Z,83.61
2023-03-17T04:43:46.618Z,83.59
2023-03-17T04:44:46.718Z,83.55
2023-03-17T04:45:46.617Z,83.55
2023-03-17T04:46:46.684Z,83.57
2023-03-17T04:47:46.547Z,83.55
2023-03-17T04:48:46.551Z,83.52
2023-03-17T04:49:46.547Z,83.48
2023-03-17T04:50:46.700Z,83.43
2023-03-17T04:51:46.525Z,83.35
2023-03-17T04:52:46.495Z,83.29
2023-03-17T04:53:46.708Z,83.25
2023-03-17T04:54:46.497Z,83.19
2023-03-17T04:55:46.633Z,83.14
2023-03-17T04:56:46.407Z,83.18
2023-03-17T04:57:46.446Z,83.21
2023-03-17T04:58:46.577Z,83.15
2023-03-17T04:59:46.433Z,83.04
2023-03-17T05:00:46.450Z,82.92
2023-03-17T05:01:46.356Z,82.95
2023-03-17T05:02:46.520Z,83.14
2023-03-17T05:03:46.399Z,83.39
2023-03-17T05:04:46.340Z,83.56
2023-03-17T05:05:46.337Z,83.63
2023-03-17T05:06:46.339Z,83.74
2023-03-17T05:07:46.326Z,83.79
2023-03-17T05:08:46.291Z,83.82
2023-03-17T05:09:46.280Z,83.84
2023-03-17T05:10:46.406Z,83.89
2023-03-17T05:11:46.273Z,83.92
2023-03-17T05:12:46.256Z,83.99
2023-03-17T05:13:46.258Z,84.06
2023-03-17T05:14:46.234Z,84.03
2023-03-17T05:15:46.294Z,84.00
2023-03-17T05:16:46.250Z,83.94
2023-03-17T05:17:46.220Z,83.87
2023-03-17T05:18:46.223Z,83.80
2023-03-17T05:19:46.189Z,83.80
2023-03-17T05:20:46.185Z,83.78
2023-03-17T05:21:46.281Z,83.58
2023-03-17T05:22:46.192Z,83.31
2023-03-17T05:23:46.165Z,83.00
2023-03-17T05:24:46.137Z,82.74
2023-03-17T05:25:46.151Z,82.48
2023-03-17T05:26:46.230Z,82.44
2023-03-17T05:27:45.096Z,82.40
2023-03-17T05:28:46.108Z,82.29
2023-03-17T05:29:46.260Z,82.26
2023-03-17T05:30:46.177Z,82.36
2023-03-17T05:31:46.124Z,82.53
2023-03-17T05:32:46.095Z,82.70
2023-03-17T05:33:46.073Z,82.86
2023-03-17T05:34:46.245Z,83.07
2023-03-17T05:35:46.060Z,83.23
2023-03-17T05:36:46.043Z,83.45
2023-03-17T05:37:46.021Z,83.58
2023-03-17T05:38:46.010Z,83.59
2023-03-17T05:39:46.086Z,83.53
2023-03-17T05:40:46.031Z,83.49
2023-03-17T05:41:45.964Z,83.44
2023-03-17T05:42:45.967Z,83.39
2023-03-17T05:43:45.946Z,83.28
2023-03-17T05:44:45.980Z,83.22
2023-03-17T05:45:45.957Z,83.18
2023-03-17T05:46:45.925Z,83.27
2023-03-17T05:47:45.985Z,83.44
2023-03-17T05:48:45.935Z,83.50
2023-03-17T05:49:45.891Z,83.57
2023-03-17T05:50:46.002Z,83.56
2023-03-17T05:51:45.900Z,83.48
2023-03-17T05:52:45.872Z,83.38
2023-03-17T05:53:45.973Z,83.31
2023-03-17T05:54:45.843Z,83.36
2023-03-17T05:55:45.841Z,83.41
2023-03-17T05:56:45.868Z,83.41
2023-03-17T05:57:45.874Z,83.39
2023-03-17T05:58:45.821Z,83.33
2023-03-17T05:59:45.884Z,83.28
2023-03-17T06:00:45.806Z,83.27
2023-03-17T06:01:45.794Z,83.30
2023-03-17T06:02:45.844Z,83.43
2023-03-17T06:03:45.854Z,83.48
2023-03-17T06:04:45.753Z,83.56
2023-03-17T06:05:45.748Z,83.69
2023-03-17T06:06:45.753Z,83.75
2023-03-17T06:07:53.985Z,83.78
2023-03-17T06:08:45.733Z,83.85
2023-03-17T06:09:45.772Z,83.79
2023-03-17T06:10:45.699Z,83.74
2023-03-17T06:11:45.695Z,83.78
2023-03-17T06:12:45.796Z,83.80
2023-03-17T06:13:45.667Z,83.83
2023-03-17T06:14:45.665Z,83.82
2023-03-17T06:15:45.751Z,83.71
2023-03-17T06:16:45.637Z,83.64
2023-03-17T06:17:45.626Z,83.70
2023-03-17T06:18:45.672Z,83.82
2023-03-17T06:19:47.288Z,83.85
2023-03-17T06:20:45.627Z,83.87
2023-03-17T06:21:45.619Z,83.82
2023-03-17T06:23:00.655Z,83.80
2023-03-17T06:23:45.572Z,83.81
2023-03-17T06:24:45.584Z,83.78
2023-03-17T06:25:45.585Z,83.62
2023-03-17T06:26:45.713Z,83.55
2023-03-17T06:27:45.552Z,83.50
2023-03-17T06:28:45.568Z,83.37
2023-03-17T06:29:45.513Z,83.25
2023-03-17T06:30:45.720Z,83.13
2023-03-17T06:31:45.514Z,82.96
2023-03-17T06:32:45.524Z,82.71
2023-03-17T06:33:45.499Z,82.46
2023-03-17T06:34:45.586Z,82.18
2023-03-17T06:35:45.536Z,81.88
2023-03-17T06:36:45.472Z,81.45
2023-03-17T06:37:45.487Z,80.91
2023-03-17T06:38:45.550Z,80.44
2023-03-17T06:39:45.430Z,80.04
2023-03-17T06:40:45.430Z,79.76
2023-03-17T06:41:45.445Z,79.36
2023-03-17T06:42:45.533Z,79.12
2023-03-17T06:43:45.409Z,78.89
2023-03-17T06:44:45.374Z,78.52
2023-03-17T06:45:45.388Z,78.35
2023-03-17T06:46:45.438Z,78.05
2023-03-17T06:47:45.478Z,78.01
2023-03-17T06:48:45.368Z,78.22
2023-03-17T06:49:45.316Z,78.33
2023-03-17T06:50:45.426Z,78.13
2023-03-17T06:51:45.294Z,78.02
2023-03-17T06:52:46.797Z,77.87
2023-03-17T06:53:45.393Z,77.75
2023-03-17T06:54:45.269Z,77.77
2023-03-17T06:55:45.272Z,77.76
2023-03-17T06:56:45.248Z,77.97
2023-03-17T06:57:45.318Z,78.00
2023-03-17T06:58:45.773Z,77.86
2023-03-17T06:59:45.236Z,78.07
2023-03-17T07:00:45.288Z,78.41
2023-03-17T07:01:45.332Z,78.87
2023-03-17T07:02:45.218Z,79.35
2023-03-17T07:03:45.206Z,79.72
2023-03-17T07:04:45.279Z,79.71
2023-03-17T07:05:45.177Z,79.66
2023-03-17T07:06:45.145Z,79.51
2023-03-17T07:07:45.313Z,79.16
2023-03-17T07:08:45.138Z,78.90
2023-03-17T07:09:45.143Z,78.72
2023-03-17T07:10:45.191Z,78.43
2023-03-17T07:11:45.097Z,78.22
2023-03-17T07:12:45.113Z,78.19
2023-03-17T07:13:45.115Z,78.25
2023-03-17T07:14:45.083Z,78.20
2023-03-17T07:15:45.100Z,77.70
2023-03-17T07:16:45.126Z,77.52
2023-03-17T07:17:45.067Z,77.26
2023-03-17T07:18:45.064Z,76.86
2023-03-17T07:19:45.030Z,76.51
2023-03-17T07:20:45.088Z,76.03
2023-03-17T07:21:46.961Z,75.40
2023-03-17T07:22:44.989Z,75.01
2023-03-17T07:23:44.982Z,74.47
2023-03-17T07:24:44.969Z,73.88
2023-03-17T07:25:45.002Z,73.59
2023-03-17T07:26:44.992Z,73.17
2023-03-17T07:27:44.940Z,72.85
2023-03-17T07:28:44.963Z,72.54
2023-03-17T07:29:44.922Z,72.28
2023-03-17T07:30:44.934Z,72.09
2023-03-17T07:31:44.956Z,72.09
2023-03-17T07:32:45.035Z,72.13
2023-03-17T07:33:44.908Z,72.06
2023-03-17T07:34:44.912Z,71.91
2023-03-17T07:35:44.939Z,71.72
2023-03-17T07:36:44.878Z,71.63
2023-03-17T07:37:44.829Z,71.53
2023-03-17T07:38:44.850Z,71.58
2023-03-17T07:39:44.844Z,71.11
2023-03-17T07:40:44.839Z,70.91
2023-03-17T07:41:44.856Z,70.67
2023-03-17T07:42:44.775Z,70.38
2023-03-17T07:43:44.832Z,70.21
2023-03-17T07:44:44.775Z,70.78
2023-03-17T07:45:44.834Z,70.66
2023-03-17T07:46:44.812Z,70.43
2023-03-17T07:47:44.735Z,70.12
2023-03-17T07:48:44.757Z,69.93
2023-03-17T07:49:44.703Z,69.65
2023-03-17T07:50:44.742Z,69.31
2023-03-17T07:51:44.726Z,69.18
2023-03-17T07:52:44.737Z,69.23
2023-03-17T07:53:44.714Z,69.42
2023-03-17T07:54:44.679Z,69.43
2023-03-17T07:55:44.666Z,69.37
2023-03-17T07:56:44.726Z,69.20
2023-03-17T07:57:44.735Z,68.75
2023-03-17T07:58:44.634Z,69.08
2023-03-17T07:59:44.672Z,69.77
2023-03-17T08:00:44.648Z,69.68
2023-03-17T08:01:44.638Z,69.36
2023-03-17T08:02:44.614Z,68.98
2023-03-17T08:03:44.638Z,68.90
2023-03-17T08:04:44.586Z,68.93
2023-03-17T08:05:44.571Z,69.39
2023-03-17T08:06:44.583Z,69.06
2023-03-17T08:07:44.602Z,68.52
2023-03-17T08:08:44.526Z,68.65
2023-03-17T08:09:44.512Z,68.30
2023-03-17T08:10:44.509Z,68.20
2023-03-17T08:11:44.505Z,68.04
2023-03-17T08:12:44.544Z,67.79
2023-03-17T08:13:45.720Z,68.07
2023-03-17T08:14:44.453Z,67.96
2023-03-17T08:15:44.485Z,67.47
2023-03-17T08:16:44.536Z,67.26
2023-03-17T08:17:44.420Z,67.54
2023-03-17T08:18:44.520Z,67.47
2023-03-17T08:19:44.400Z,67.42
2023-03-17T08:20:44.402Z,67.42
2023-03-17T08:21:44.408Z,67.35
2023-03-17T08:22:44.438Z,67.30
2023-03-17T08:23:44.405Z,67.67
2023-03-17T08:24:44.430Z,68.62
2023-03-17T08:25:44.404Z,68.25
2023-03-17T08:26:44.337Z,67.81
2023-03-17T08:27:44.410Z,67.50
2023-03-17T08:28:44.325Z,67.08
2023-03-17T08:29:44.314Z,67.28
2023-03-17T08:30:44.355Z,66.71
2023-03-17T08:31:46.559Z,66.04
2023-03-17T08:32:44.337Z,66.00
2023-03-17T08:33:44.295Z,65.83
2023-03-17T08:34:44.242Z,66.13
2023-03-17T08:35:44.352Z,66.26
2023-03-17T08:36:44.229Z,66.55
2023-03-17T08:37:44.238Z,66.18
2023-03-17T08:38:44.229Z,65.06
2023-03-17T08:39:44.197Z,65.11
2023-03-17T08:40:44.213Z,65.24
2023-03-17T08:41:44.182Z,64.94
2023-03-17T08:42:44.181Z,64.45
2023-03-17T08:43:44.197Z,64.25
2023-03-17T08:44:44.318Z,64.28
2023-03-17T08:45:44.188Z,63.50
2023-03-17T08:46:44.226Z,62.71
2023-03-17T08:47:44.116Z,62.36
2023-03-17T08:48:44.101Z,63.00
2023-03-17T08:49:44.093Z,62.47
2023-03-17T08:50:44.131Z,62.69
2023-03-17T08:51:44.090Z,62.20
2023-03-17T08:52:44.087Z,61.84
2023-03-17T08:53:44.128Z,61.54
2023-03-17T08:54:44.070Z,62.27
2023-03-17T08:55:44.034Z,61.72
2023-03-17T08:56:44.033Z,61.61
2023-03-17T08:57:44.024Z,61.38
2023-03-17T08:58:44.081Z,60.92
2023-03-17T08:59:44.014Z,61.67
2023-03-17T09:00:43.978Z,62.21
2023-03-17T09:01:44.060Z,62.19
2023-03-17T09:02:44.068Z,61.88
2023-03-17T09:03:43.977Z,61.54
2023-03-17T09:04:43.971Z,61.93
2023-03-17T09:05:43.969Z,62.32
2023-03-17T09:07:01.310Z,63.53
2023-03-17T09:07:44.097Z,62.88
2023-03-17T09:08:43.897Z,62.58
2023-03-17T09:09:43.891Z,62.46
2023-03-17T09:10:44.509Z,62.52
2023-03-17T09:11:43.886Z,62.12
2023-03-17T09:12:43.874Z,61.76
2023-03-17T09:13:43.850Z,62.27
2023-03-17T09:14:44.923Z,62.98
2023-03-17T09:15:43.879Z,63.21
2023-03-17T09:16:43.879Z,63.16
2023-03-17T09:17:43.814Z,62.57
2023-03-17T09:18:43.807Z,62.44
2023-03-17T09:19:43.955Z,63.07
2023-03-17T09:20:43.801Z,62.94
2023-03-17T09:21:43.834Z,61.84
2023-03-17T09:22:43.759Z,61.37
2023-03-17T09:23:43.774Z,60.87
2023-03-17T09:24:43.751Z,60.84
2023-03-17T09:25:43.760Z,60.08
2023-03-17T09:26:43.729Z,60.05
2023-03-17T09:27:43.748Z,58.97
2023-03-17T09:28:43.741Z,58.24
2023-03-17T09:29:43.717Z,57.88
2023-03-17T09:30:43.693Z,57.14
2023-03-17T09:31:43.727Z,58.26
2023-03-17T09:32:43.752Z,59.33
2023-03-17T09:33:43.670Z,58.85
2023-03-17T09:34:43.664Z,58.29
2023-03-17T09:35:43.668Z,58.13
2023-03-17T09:36:43.661Z,57.57
2023-03-17T09:37:43.636Z,57.99
2023-03-17T09:38:43.605Z,57.77
2023-03-17T09:39:43.594Z,57.53
2023-03-17T09:40:43.599Z,57.75
2023-03-17T09:41:43.576Z,57.96
2023-03-17T09:42:43.553Z,56.83
2023-03-17T09:43:43.542Z,56.46
2023-03-17T09:44:43.524Z,56.17
2023-03-17T09:45:43.846Z,56.24
2023-03-17T09:46:43.559Z,56.37
2023-03-17T09:47:43.508Z,56.50
2023-03-17T09:48:43.486Z,56.25
2023-03-17T09:49:43.474Z,56.82
2023-03-17T09:50:43.465Z,56.56
2023-03-17T09:51:43.468Z,56.62
2023-03-17T09:52:43.474Z,56.90
2023-03-17T09:53:43.441Z,57.41
2023-03-17T09:54:43.476Z,57.04
2023-03-17T09:55:43.422Z,56.60
2023-03-17T09:56:43.433Z,56.65
2023-03-17T09:57:43.422Z,56.48
2023-03-17T09:58:43.399Z,56.99
2023-03-17T09:59:43.403Z,56.82
2023-03-17T10:00:43.379Z,57.30
2023-03-17T10:01:43.473Z,56.89
2023-03-17T10:02:43.387Z,56.91
2023-03-17T10:03:43.363Z,56.44
2023-03-17T10:04:43.330Z,56.32
2023-03-17T10:05:43.350Z,56.43
2023-03-17T10:06:43.305Z,56.23
2023-03-17T10:07:43.306Z,56.24
2023-03-17T10:08:43.328Z,56.03
2023-03-17T10:09:43.289Z,55.72
2023-03-17T10:10:43.274Z,56.35
2023-03-17T10:11:43.253Z,56.21
2023-03-17T10:12:43.243Z,55.61
2023-03-17T10:13:43.245Z,55.24
2023-03-17T10:14:43.250Z,54.96
2023-03-17T10:15:43.241Z,55.11
2023-03-17T10:16:43.248Z,54.40
2023-03-17T10:17:43.234Z,53.76
2023-03-17T10:18:43.183Z,53.79
2023-03-17T10:19:43.170Z,53.86
2023-03-17T10:20:43.161Z,54.19
2023-03-17T10:21:43.188Z,54.38
2023-03-17T10:22:43.190Z,54.27
2023-03-17T10:23:43.158Z,54.19
2023-03-17T10:24:43.180Z,54.31
2023-03-17T10:25:43.111Z,54.55
2023-03-17T10:26:43.110Z,54.50
2023-03-17T10:27:43.128Z,54.83
2023-03-17T10:28:43.121Z,54.40
2023-03-17T10:29:43.073Z,53.83
2023-03-17T10:30:43.075Z,53.98
2023-03-17T10:31:43.147Z,54.50
2023-03-17T10:32:43.100Z,55.13
2023-03-17T10:33:43.041Z,54.91
2023-03-17T10:34:43.029Z,54.14
2023-03-17T10:35:43.032Z,52.84
2023-03-17T10:36:42.993Z,53.11
2023-03-17T10:37:43.965Z,52.59
2023-03-17T10:38:42.977Z,52.80
2023-03-17T10:39:42.988Z,52.55
2023-03-17T10:40:42.986Z,51.79
2023-03-17T10:41:42.964Z,52.24
2023-03-17T10:42:42.936Z,52.06
2023-03-17T10:43:42.931Z,51.67
2023-03-17T10:44:42.933Z,52.29
2023-03-17T10:45:45.229Z,52.79
2023-03-17T10:46:42.921Z,52.61
2023-03-17T10:47:42.893Z,52.43
2023-03-17T10:48:42.876Z,52.75
2023-03-17T10:49:42.901Z,52.11
2023-03-17T10:50:42.863Z,52.19
2023-03-17T10:51:42.845Z,51.47
2023-03-17T10:52:42.862Z,51.43
2023-03-17T10:53:42.852Z,51.03
2023-03-17T10:54:42.813Z,50.57
2023-03-17T10:55:42.849Z,51.13
2023-03-17T10:56:42.817Z,50.71
2023-03-17T10:57:42.782Z,49.64
2023-03-17T10:58:42.865Z,49.86
2023-03-17T10:59:44.326Z,49.31
2023-03-17T11:00:42.836Z,49.50
2023-03-17T11:01:42.744Z,49.92
2023-03-17T11:02:42.754Z,50.43
2023-03-17T11:03:42.838Z,50.34
2023-03-17T11:04:42.726Z,49.14
2023-03-17T11:05:42.711Z,49.23
2023-03-17T11:06:42.741Z,49.03
2023-03-17T11:07:42.718Z,49.08
2023-03-17T11:08:42.675Z,47.87
2023-03-17T11:09:42.664Z,48.62
2023-03-17T11:10:42.651Z,49.19
2023-03-17T11:11:42.646Z,49.02
2023-03-17T11:12:42.652Z,48.24
2023-03-17T11:13:42.623Z,48.28
2023-03-17T11:14:42.682Z,48.44
2023-03-17T11:15:42.639Z,48.31
2023-03-17T11:16:42.649Z,47.62
2023-03-17T11:17:42.577Z,48.31
2023-03-17T11:18:42.588Z,47.89
2023-03-17T11:19:42.559Z,48.37
2023-03-17T11:20:42.587Z,48.49
2023-03-17T11:21:42.552Z,47.91
2023-03-17T11:22:42.536Z,47.66
2023-03-17T11:23:42.577Z,48.24
2023-03-17T11:24:42.545Z,48.43
2023-03-17T11:25:42.514Z,47.60
2023-03-17T11:26:42.522Z,47.40
2023-03-17T11:27:42.480Z,47.27
2023-03-17T11:28:42.470Z,47.71
2023-03-17T11:29:42.471Z,47.05
2023-03-17T11:30:42.453Z,46.73
2023-03-17T11:31:42.528Z,46.18
2023-03-17T11:32:42.473Z,46.31
2023-03-17T11:33:42.425Z,47.06
2023-03-17T11:34:42.418Z,46.69
2023-03-17T11:35:42.421Z,46.81
2023-03-17T11:36:42.405Z,47.09
2023-03-17T11:37:42.422Z,47.46
2023-03-17T11:38:42.389Z,46.02
2023-03-17T11:39:42.359Z,46.37
2023-03-17T11:40:42.349Z,46.62
2023-03-17T11:41:42.360Z,45.03
2023-03-17T11:42:42.351Z,44.92
2023-03-17T11:43:42.340Z,44.72
2023-03-17T11:44:42.321Z,44.40
2023-03-17T11:45:42.354Z,44.45
2023-03-17T11:46:42.293Z,45.22
2023-03-17T11:47:42.301Z,45.59
2023-03-17T11:48:42.293Z,46.16
2023-03-17T11:49:42.292Z,47.29
2023-03-17T11:50:42.250Z,47.24
2023-03-17T11:51:42.241Z,46.88
2023-03-17T11:52:42.236Z,46.19
2023-03-17T11:53:42.253Z,45.88
2023-03-17T11:54:42.211Z,45.43
2023-03-17T11:55:42.212Z,45.83
2023-03-17T11:56:42.191Z,45.43
2023-03-17T11:57:42.190Z,45.38
2023-03-17T11:58:42.203Z,45.38
2023-03-17T11:59:42.148Z,44.66
2023-03-17T12:00:42.920Z,44.74
2023-03-17T12:01:42.139Z,43.60
2023-03-17T12:02:42.172Z,44.40
2023-03-17T12:03:42.155Z,43.18
2023-03-17T12:04:42.130Z,42.60
2023-03-17T12:05:42.091Z,41.94
2023-03-17T12:06:42.101Z,42.18
2023-03-17T12:07:42.146Z,42.82
2023-03-17T12:08:42.133Z,43.46
2023-03-17T12:09:42.093Z,43.53
2023-03-17T12:10:42.045Z,43.06
2023-03-17T12:11:42.034Z,43.73
2023-03-17T12:12:42.032Z,42.75
2023-03-17T12:13:42.027Z,42.90
2023-03-17T12:14:42.025Z,42.80
2023-03-17T12:15:42.097Z,42.69
2023-03-17T12:16:42.006Z,43.51
2023-03-17T12:17:41.965Z,43.85
2023-03-17T12:18:42.038Z,43.23
2023-03-17T12:19:41.998Z,41.39
2023-03-17T12:20:42.002Z,42.39
2023-03-17T12:21:41.940Z,42.37
2023-03-17T12:22:41.925Z,43.25
2023-03-17T12:23:41.913Z,43.76
2023-03-17T12:24:41.903Z,43.06
2023-03-17T12:25:41.929Z,42.48
2023-03-17T12:26:41.882Z,42.22
2023-03-17T12:27:41.869Z,42.03
2023-03-17T12:28:41.908Z,43.14
2023-03-17T12:29:41.846Z,42.61
2023-03-17T12:30:41.911Z,42.64
2023-03-17T12:31:41.829Z,42.56
2023-03-17T12:32:41.900Z,43.13
2023-03-17T12:33:41.824Z,43.26
2023-03-17T12:34:41.917Z,43.47
2023-03-17T12:35:41.864Z,43.65
2023-03-17T12:36:41.813Z,43.05
2023-03-17T12:37:41.772Z,43.88
2023-03-17T12:38:41.807Z,43.27
2023-03-17T12:39:41.749Z,44.36
2023-03-17T12:40:41.774Z,44.12
2023-03-17T12:41:41.723Z,43.43
2023-03-17T12:42:41.731Z,43.32
2023-03-17T12:43:41.742Z,42.50
2023-03-17T12:44:41.699Z,42.44
2023-03-17T12:45:41.686Z,42.47
2023-03-17T12:46:41.804Z,42.34
2023-03-17T12:47:41.670Z,41.95
2023-03-17T12:48:41.694Z,42.14
2023-03-17T12:49:41.660Z,41.66
2023-03-17T12:50:41.665Z,41.57
2023-03-17T12:51:41.632Z,42.12
2023-03-17T12:52:41.616Z,41.59